createdAt,value
2022-10-19T00:00:09.298Z,1007.52
2022-10-19T00:01:09.188Z,1007.58
2022-10-19T00:02:09.227Z,1007.59
2022-10-19T00:03:09.265Z,1007.56
2022-10-19T00:04:09.174Z,1007.57
2022-10-19T00:05:10.226Z,1007.60
2022-10-19T00:06:09.253Z,1007.54
2022-10-19T00:07:09.205Z,1007.59
2022-10-19T00:08:09.269Z,1007.62
2022-10-19T00:09:09.231Z,1007.61
2022-10-19T00:10:09.297Z,1007.55
2022-10-19T00:11:09.149Z,1007.62
2022-10-19T00:12:09.375Z,1007.62
2022-10-19T00:13:09.226Z,1007.59
2022-10-19T00:14:09.215Z,1007.56
2022-10-19T00:15:09.223Z,1007.67
2022-10-19T00:16:11.332Z,1007.62
2022-10-19T00:17:09.059Z,1007.63
2022-10-19T00:18:09.101Z,1007.59
2022-10-19T00:19:09.153Z,1007.65
2022-10-19T00:20:09.147Z,1007.64
2022-10-19T00:21:09.131Z,1007.69
2022-10-19T00:22:11.681Z,1007.65
2022-10-19T00:23:09.103Z,1007.76
2022-10-19T00:24:09.065Z,1007.69
2022-10-19T00:25:09.100Z,1007.77
2022-10-19T00:26:09.098Z,1007.72
2022-10-19T00:27:09.093Z,1007.73
2022-10-19T00:28:09.137Z,1007.74
2022-10-19T00:29:09.170Z,1007.73
2022-10-19T00:30:08.938Z,1007.82
2022-10-19T00:31:08.978Z,1007.92
2022-10-19T00:32:08.990Z,1007.81
2022-10-19T00:33:09.079Z,1007.82
2022-10-19T00:34:09.061Z,1007.89
2022-10-19T00:35:08.967Z,1007.88
2022-10-19T00:36:09.070Z,1007.90
2022-10-19T00:37:09.010Z,1007.89
2022-10-19T00:38:09.052Z,1007.87
2022-10-19T00:39:09.013Z,1007.85
2022-10-19T00:40:09.076Z,1007.88
2022-10-19T00:41:08.963Z,1007.86
2022-10-19T00:42:08.933Z,1007.86
2022-10-19T00:43:08.927Z,1007.85
2022-10-19T00:44:09.010Z,1007.91
2022-10-19T00:45:08.886Z,1007.87
2022-10-19T00:46:08.965Z,1007.90
2022-10-19T00:47:08.808Z,1007.86
2022-10-19T00:48:08.827Z,1007.88
2022-10-19T00:49:10.820Z,1007.87
2022-10-19T00:50:08.862Z,1007.85
2022-10-19T00:51:08.870Z,1007.77
2022-10-19T00:52:08.908Z,1007.85
2022-10-19T00:53:08.891Z,1007.83
2022-10-19T00:54:08.898Z,1007.83
2022-10-19T00:55:08.903Z,1007.87
2022-10-19T00:56:08.831Z,1007.88
2022-10-19T00:57:08.892Z,1007.93
2022-10-19T00:58:08.773Z,1007.84
2022-10-19T00:59:08.849Z,1007.87
2022-10-19T01:00:08.823Z,1007.90
2022-10-19T01:01:08.998Z,1007.89
2022-10-19T01:02:08.777Z,1007.93
2022-10-19T01:03:08.901Z,1007.87
2022-10-19T01:04:08.707Z,1007.87
2022-10-19T01:05:08.748Z,1007.84
2022-10-19T01:06:08.833Z,1007.92
2022-10-19T01:07:08.791Z,1007.83
2022-10-19T01:08:08.782Z,1007.87
2022-10-19T01:09:09.809Z,1007.85
2022-10-19T01:10:08.771Z,1007.88
2022-10-19T01:11:08.733Z,1007.90
2022-10-19T01:12:08.779Z,1007.91
2022-10-19T01:13:08.731Z,1007.94
2022-10-19T01:14:08.722Z,1007.81
2022-10-19T01:15:08.786Z,1007.80
2022-10-19T01:16:08.747Z,1007.79
2022-10-19T01:17:08.858Z,1007.83
2022-10-19T01:18:08.684Z,1007.87
2022-10-19T01:19:08.672Z,1007.77
2022-10-19T01:20:08.654Z,1007.77
2022-10-19T01:21:08.582Z,1007.71
2022-10-19T01:22:08.790Z,1007.76
2022-10-19T01:23:08.698Z,1007.80
2022-10-19T01:24:08.749Z,1007.78
2022-10-19T01:25:08.650Z,1007.77
2022-10-19T01:26:08.654Z,1007.77
2022-10-19T01:27:08.650Z,1007.81
2022-10-19T01:28:08.683Z,1007.71
2022-10-19T01:29:08.675Z,1007.69
2022-10-19T01:30:09.688Z,1007.61
2022-10-19T01:31:08.592Z,1007.72
2022-10-19T01:32:08.585Z,1007.66
2022-10-19T01:33:08.481Z,1007.61
2022-10-19T01:34:08.558Z,1007.60
2022-10-19T01:35:08.573Z,1007.57
2022-10-19T01:36:08.550Z,1007.55
2022-10-19T01:37:08.585Z,1007.49
2022-10-19T01:38:08.541Z,1007.56
2022-10-19T01:39:08.588Z,1007.61
2022-10-19T01:40:08.583Z,1007.54
2022-10-19T01:41:08.532Z,1007.63
2022-10-19T01:42:08.534Z,1007.61
2022-10-19T01:43:08.576Z,1007.58
2022-10-19T01:44:08.529Z,1007.61
2022-10-19T01:45:08.632Z,1007.63
2022-10-19T01:46:08.474Z,1007.69
2022-10-19T01:47:08.542Z,1007.65
2022-10-19T01:48:08.427Z,1007.63
2022-10-19T01:49:08.387Z,1007.54
2022-10-19T01:50:08.403Z,1007.47
2022-10-19T01:51:08.366Z,1007.51
2022-10-19T01:52:08.475Z,1007.58
2022-10-19T01:53:08.432Z,1007.44
2022-10-19T01:54:08.452Z,1007.51
2022-10-19T01:55:08.511Z,1007.43
2022-10-19T01:56:08.431Z,1007.56
2022-10-19T01:57:08.426Z,1007.48
2022-10-19T01:58:09.616Z,1007.47
2022-10-19T01:59:08.412Z,1007.47
2022-10-19T02:00:08.431Z,1007.48
2022-10-19T02:01:08.552Z,1007.44
2022-10-19T02:02:08.475Z,1007.46
2022-10-19T02:03:08.349Z,1007.45
2022-10-19T02:04:08.390Z,1007.40
2022-10-19T02:05:09.211Z,1007.37
2022-10-19T02:06:08.349Z,1007.29
2022-10-19T02:07:08.353Z,1007.28
2022-10-19T02:08:08.377Z,1007.25
2022-10-19T02:09:08.345Z,1007.32
2022-10-19T02:10:08.461Z,1007.33
2022-10-19T02:11:08.316Z,1007.26
2022-10-19T02:12:08.346Z,1007.31
2022-10-19T02:13:08.335Z,1007.32
2022-10-19T02:14:08.297Z,1007.29
2022-10-19T02:15:08.313Z,1007.33
2022-10-19T02:16:08.262Z,1007.39
2022-10-19T02:17:08.622Z,1007.30
2022-10-19T02:18:08.305Z,1007.25
2022-10-19T02:19:08.170Z,1007.29
2022-10-19T02:20:08.133Z,1007.36
2022-10-19T02:21:09.262Z,1007.27
2022-10-19T02:22:08.186Z,1007.24
2022-10-19T02:23:08.271Z,1007.25
2022-10-19T02:24:08.288Z,1007.24
2022-10-19T02:25:08.262Z,1007.21
2022-10-19T02:26:08.264Z,1007.20
2022-10-19T02:27:08.253Z,1007.24
2022-10-19T02:28:08.288Z,1007.27
2022-10-19T02:29:08.277Z,1007.23
2022-10-19T02:30:08.188Z,1007.27
2022-10-19T02:31:08.223Z,1007.29
2022-10-19T02:32:08.183Z,1007.18
2022-10-19T02:33:08.094Z,1007.27
2022-10-19T02:34:08.077Z,1007.25
2022-10-19T02:35:08.078Z,1007.24
2022-10-19T02:36:08.044Z,1007.24
2022-10-19T02:37:08.064Z,1007.26
2022-10-19T02:38:09.076Z,1007.22
2022-10-19T02:39:08.120Z,1007.30
2022-10-19T02:40:07.999Z,1007.31
2022-10-19T02:41:08.023Z,1007.32
2022-10-19T02:42:08.096Z,1007.34
2022-10-19T02:43:08.113Z,1007.36
2022-10-19T02:44:08.099Z,1007.35
2022-10-19T02:45:08.134Z,1007.35
2022-10-19T02:46:08.131Z,1007.43
2022-10-19T02:47:08.048Z,1007.44
2022-10-19T02:48:08.066Z,1007.40
2022-10-19T02:49:08.129Z,1007.45
2022-10-19T02:50:08.145Z,1007.40
2022-10-19T02:51:08.106Z,1007.37
2022-10-19T02:52:08.075Z,1007.42
2022-10-19T02:53:08.017Z,1007.43
2022-10-19T02:54:08.085Z,1007.44
2022-10-19T02:55:07.933Z,1007.45
2022-10-19T02:56:07.936Z,1007.47
2022-10-19T02:57:08.063Z,1007.44
2022-10-19T02:58:07.928Z,1007.41
2022-10-19T02:59:07.987Z,1007.48
2022-10-19T03:00:07.984Z,1007.51
2022-10-19T03:01:08.050Z,1007.45
2022-10-19T03:02:07.970Z,1007.46
2022-10-19T03:03:07.946Z,1007.44
2022-10-19T03:04:07.937Z,1007.46
2022-10-19T03:05:07.952Z,1007.42
2022-10-19T03:06:07.937Z,1007.44
2022-10-19T03:07:07.940Z,1007.49
2022-10-19T03:08:07.941Z,1007.42
2022-10-19T03:09:07.816Z,1007.47
2022-10-19T03:10:07.837Z,1007.44
2022-10-19T03:11:07.927Z,1007.45
2022-10-19T03:12:07.831Z,1007.42
2022-10-19T03:13:07.823Z,1007.47
2022-10-19T03:14:07.832Z,1007.47
2022-10-19T03:15:07.770Z,1007.49
2022-10-19T03:16:07.874Z,1007.46
2022-10-19T03:17:07.992Z,1007.51
2022-10-19T03:18:07.853Z,1007.41
2022-10-19T03:19:07.925Z,1007.48
2022-10-19T03:20:07.829Z,1007.46
2022-10-19T03:21:07.815Z,1007.49
2022-10-19T03:22:07.814Z,1007.47
2022-10-19T03:23:08.053Z,1007.55
2022-10-19T03:24:07.811Z,1007.57
2022-10-19T03:25:07.835Z,1007.59
2022-10-19T03:26:10.048Z,1007.65
2022-10-19T03:27:07.784Z,1007.65
2022-10-19T03:28:08.874Z,1007.60
2022-10-19T03:29:07.672Z,1007.61
2022-10-19T03:30:07.703Z,1007.63
2022-10-19T03:31:07.737Z,1007.66
2022-10-19T03:32:07.700Z,1007.69
2022-10-19T03:33:07.846Z,1007.60
2022-10-19T03:34:07.748Z,1007.70
2022-10-19T03:35:07.730Z,1007.67
2022-10-19T03:36:07.735Z,1007.74
2022-10-19T03:37:07.726Z,1007.66
2022-10-19T03:38:07.740Z,1007.62
2022-10-19T03:39:07.780Z,1007.63
2022-10-19T03:40:07.749Z,1007.75
2022-10-19T03:41:07.736Z,1007.70
2022-10-19T03:42:07.782Z,1007.65
2022-10-19T03:43:07.660Z,1007.67
2022-10-19T03:44:07.718Z,1007.69
2022-10-19T03:45:07.639Z,1007.76
2022-10-19T03:46:07.634Z,1007.68
2022-10-19T03:47:07.660Z,1007.69
2022-10-19T03:48:07.604Z,1007.71
2022-10-19T03:49:07.533Z,1007.68
2022-10-19T03:50:07.689Z,1007.60
2022-10-19T03:51:07.507Z,1007.66
2022-10-19T03:52:07.542Z,1007.68
2022-10-19T03:53:07.573Z,1007.70
2022-10-19T03:54:07.499Z,1007.64
2022-10-19T03:55:07.615Z,1007.72
2022-10-19T03:56:07.635Z,1007.64
2022-10-19T03:57:07.633Z,1007.69
2022-10-19T03:58:07.582Z,1007.75
2022-10-19T03:59:07.642Z,1007.75
2022-10-19T04:00:07.571Z,1007.73
2022-10-19T04:01:07.709Z,1007.77
2022-10-19T04:02:07.611Z,1007.68
2022-10-19T04:03:07.566Z,1007.66
2022-10-19T04:04:07.527Z,1007.67
2022-10-19T04:05:07.515Z,1007.69
2022-10-19T04:06:07.545Z,1007.67
2022-10-19T04:07:07.513Z,1007.68
2022-10-19T04:08:07.402Z,1007.65
2022-10-19T04:09:07.496Z,1007.68
2022-10-19T04:10:07.377Z,1007.65
2022-10-19T04:11:07.495Z,1007.68
2022-10-19T04:12:07.525Z,1007.69
2022-10-19T04:13:07.470Z,1007.73
2022-10-19T04:14:07.503Z,1007.76
2022-10-19T04:15:07.481Z,1007.87
2022-10-19T04:16:07.454Z,1007.85
2022-10-19T04:17:07.462Z,1007.77
2022-10-19T04:18:07.441Z,1007.87
2022-10-19T04:19:08.008Z,1007.89
2022-10-19T04:20:07.383Z,1007.77
2022-10-19T04:21:07.419Z,1007.74
2022-10-19T04:22:07.428Z,1007.82
2022-10-19T04:23:07.704Z,1007.82
2022-10-19T04:24:07.413Z,1007.82
2022-10-19T04:25:07.377Z,1007.81
2022-10-19T04:26:07.412Z,1007.76
2022-10-19T04:27:07.575Z,1007.80
2022-10-19T04:28:07.270Z,1007.84
2022-10-19T04:29:07.303Z,1007.77
2022-10-19T04:30:07.366Z,1007.90
2022-10-19T04:31:07.288Z,1007.85
2022-10-19T04:32:07.391Z,1007.81
2022-10-19T04:33:07.380Z,1007.76
2022-10-19T04:34:07.315Z,1007.82
2022-10-19T04:35:07.293Z,1007.81
2022-10-19T04:36:07.304Z,1007.82
2022-10-19T04:37:07.317Z,1007.82
2022-10-19T04:38:07.435Z,1007.81
2022-10-19T04:39:07.236Z,1007.81
2022-10-19T04:40:09.461Z,1007.87
2022-10-19T04:41:08.231Z,1007.82
2022-10-19T04:42:07.212Z,1007.79
2022-10-19T04:43:07.157Z,1007.81
2022-10-19T04:44:07.144Z,1007.83
2022-10-19T04:45:07.284Z,1007.82
2022-10-19T04:46:07.190Z,1007.87
2022-10-19T04:47:07.448Z,1007.79
2022-10-19T04:48:07.185Z,1007.87
2022-10-19T04:49:07.248Z,1007.81
2022-10-19T04:50:07.156Z,1007.82
2022-10-19T04:51:07.149Z,1007.81
2022-10-19T04:52:07.167Z,1007.78
2022-10-19T04:53:07.132Z,1007.82
2022-10-19T04:54:07.111Z,1007.77
2022-10-19T04:55:08.174Z,1007.74
2022-10-19T04:56:07.111Z,1007.76
2022-10-19T04:57:07.135Z,1007.79
2022-10-19T04:58:07.039Z,1007.79
2022-10-19T04:59:07.131Z,1007.69
2022-10-19T05:00:07.027Z,1007.72
2022-10-19T05:01:07.178Z,1007.76
2022-10-19T05:02:07.086Z,1007.69
2022-10-19T05:03:07.019Z,1007.73
2022-10-19T05:04:07.088Z,1007.73
2022-10-19T05:05:07.054Z,1007.73
2022-10-19T05:06:07.111Z,1007.75
2022-10-19T05:07:07.057Z,1007.66
2022-10-19T05:08:07.122Z,1007.76
2022-10-19T05:09:07.051Z,1007.68
2022-10-19T05:10:07.065Z,1007.73
2022-10-19T05:11:07.009Z,1007.75
2022-10-19T05:12:07.065Z,1007.64
2022-10-19T05:13:07.013Z,1007.65
2022-10-19T05:14:07.082Z,1007.66
2022-10-19T05:15:06.939Z,1007.69
2022-10-19T05:16:06.891Z,1007.69
2022-10-19T05:17:06.955Z,1007.65
2022-10-19T05:18:06.883Z,1007.65
2022-10-19T05:19:06.885Z,1007.65
2022-10-19T05:20:06.874Z,1007.62
2022-10-19T05:21:06.865Z,1007.63
2022-10-19T05:22:06.859Z,1007.67
2022-10-19T05:23:07.456Z,1007.63
2022-10-19T05:24:06.840Z,1007.64
2022-10-19T05:25:06.968Z,1007.62
2022-10-19T05:26:07.650Z,1007.61
2022-10-19T05:27:07.027Z,1007.65
2022-10-19T05:28:06.991Z,1007.58
2022-10-19T05:29:06.962Z,1007.56
2022-10-19T05:30:06.892Z,1007.62
2022-10-19T05:31:06.899Z,1007.65
2022-10-19T05:32:06.884Z,1007.56
2022-10-19T05:33:06.854Z,1007.53
2022-10-19T05:35:06.773Z,1007.53
2022-10-19T05:36:06.766Z,1007.60
2022-10-19T05:37:06.877Z,1007.57
2022-10-19T05:38:06.731Z,1007.59
2022-10-19T05:39:06.766Z,1007.57
2022-10-19T05:40:06.785Z,1007.66
2022-10-19T05:41:06.748Z,1007.63
2022-10-19T05:42:06.746Z,1007.60
2022-10-19T05:43:06.743Z,1007.70
2022-10-19T05:44:06.886Z,1007.66
2022-10-19T05:45:06.887Z,1007.67
2022-10-19T05:46:06.853Z,1007.69
2022-10-19T05:47:06.836Z,1007.62
2022-10-19T05:48:06.769Z,1007.70
2022-10-19T05:49:06.863Z,1007.69
2022-10-19T05:50:06.806Z,1007.71
2022-10-19T05:51:06.766Z,1007.73
2022-10-19T05:52:06.722Z,1007.74
2022-10-19T05:53:06.740Z,1007.66
2022-10-19T05:54:06.701Z,1007.69
2022-10-19T05:55:06.657Z,1007.60
2022-10-19T05:56:06.606Z,1007.63
2022-10-19T05:57:06.688Z,1007.65
2022-10-19T05:58:06.591Z,1007.67
2022-10-19T05:59:06.600Z,1007.64
2022-10-19T06:00:06.746Z,1007.67
2022-10-19T06:01:06.649Z,1007.70
2022-10-19T06:02:06.690Z,1007.65
2022-10-19T06:03:06.667Z,1007.74
2022-10-19T06:04:06.661Z,1007.75
2022-10-19T06:05:06.654Z,1007.72
2022-10-19T06:06:06.709Z,1007.72
2022-10-19T06:07:06.633Z,1007.74
2022-10-19T06:08:06.689Z,1007.77
2022-10-19T06:09:06.619Z,1007.78
2022-10-19T06:10:06.672Z,1007.82
2022-10-19T06:11:07.190Z,1007.80
2022-10-19T06:12:06.516Z,1007.79
2022-10-19T06:13:06.513Z,1007.80
2022-10-19T06:14:06.496Z,1007.75
2022-10-19T06:15:06.570Z,1007.82
2022-10-19T06:16:06.524Z,1007.85
2022-10-19T06:17:06.590Z,1007.73
2022-10-19T06:18:06.561Z,1007.83
2022-10-19T06:19:06.559Z,1007.74
2022-10-19T06:20:06.541Z,1007.72
2022-10-19T06:21:06.553Z,1007.76
2022-10-19T06:22:06.587Z,1007.69
2022-10-19T06:23:06.499Z,1007.76
2022-10-19T06:24:06.498Z,1007.78
2022-10-19T06:25:06.500Z,1007.82
2022-10-19T06:26:06.535Z,1007.79
2022-10-19T06:27:06.429Z,1007.78
2022-10-19T06:28:06.436Z,1007.72
2022-10-19T06:29:06.474Z,1007.80
2022-10-19T06:30:06.486Z,1007.77
2022-10-19T06:31:08.555Z,1007.72
2022-10-19T06:32:06.436Z,1007.83
2022-10-19T06:33:06.925Z,1007.85
2022-10-19T06:34:06.481Z,1007.81
2022-10-19T06:35:06.571Z,1007.86
2022-10-19T06:36:06.413Z,1007.82
2022-10-19T06:37:06.435Z,1007.78
2022-10-19T06:38:06.499Z,1007.81
2022-10-19T06:39:06.469Z,1007.93
2022-10-19T06:40:07.331Z,1007.86
2022-10-19T06:41:07.413Z,1007.88
2022-10-19T06:42:06.325Z,1007.88
2022-10-19T06:43:06.293Z,1007.96
2022-10-19T06:44:07.169Z,1007.96
2022-10-19T06:45:06.291Z,1008.00
2022-10-19T06:46:06.365Z,1007.97
2022-10-19T06:47:08.130Z,1008.00
2022-10-19T06:48:07.723Z,1007.99
2022-10-19T06:49:07.368Z,1007.90
2022-10-19T06:50:06.368Z,1007.94
2022-10-19T06:51:06.626Z,1007.88
2022-10-19T06:52:06.330Z,1007.91
2022-10-19T06:53:06.309Z,1007.99
2022-10-19T06:54:06.365Z,1007.99
2022-10-19T06:55:06.319Z,1007.93
2022-10-19T06:56:06.256Z,1007.87
2022-10-19T06:57:06.202Z,1007.86
2022-10-19T06:58:06.175Z,1007.93
2022-10-19T06:59:06.163Z,1007.94
2022-10-19T07:00:06.229Z,1007.93
2022-10-19T07:01:06.203Z,1007.94
2022-10-19T07:02:06.159Z,1008.01
2022-10-19T07:03:06.138Z,1007.95
2022-10-19T07:04:06.150Z,1007.97
2022-10-19T07:05:07.240Z,1007.98
2022-10-19T07:06:07.164Z,1007.99
2022-10-19T07:07:06.163Z,1008.03
2022-10-19T07:08:07.162Z,1008.05
2022-10-19T07:09:06.175Z,1008.04
2022-10-19T07:10:06.487Z,1008.10
2022-10-19T07:11:06.191Z,1008.07
2022-10-19T07:12:06.173Z,1008.12
2022-10-19T07:13:07.198Z,1008.08
2022-10-19T07:14:06.180Z,1008.09
2022-10-19T07:15:06.209Z,1008.09
2022-10-19T07:16:06.163Z,1008.08
2022-10-19T07:17:06.211Z,1008.12
2022-10-19T07:18:06.137Z,1008.14
2022-10-19T07:19:06.017Z,1008.13
2022-10-19T07:20:06.037Z,1008.12
2022-10-19T07:21:06.030Z,1008.11
2022-10-19T07:22:06.049Z,1008.14
2022-10-19T07:23:06.111Z,1008.12
2022-10-19T07:24:06.128Z,1008.19
2022-10-19T07:25:06.086Z,1008.12
2022-10-19T07:26:06.046Z,1008.15
2022-10-19T07:27:06.050Z,1008.12
2022-10-19T07:28:06.106Z,1008.20
2022-10-19T07:29:06.055Z,1008.25
2022-10-19T07:30:05.959Z,1008.18
2022-10-19T07:31:06.072Z,1008.14
2022-10-19T07:32:06.021Z,1008.19
2022-10-19T07:33:06.106Z,1008.17
2022-10-19T07:34:06.029Z,1008.26
2022-10-19T07:35:05.992Z,1008.21
2022-10-19T07:36:06.032Z,1008.18
2022-10-19T07:37:05.982Z,1008.20
2022-10-19T07:38:06.061Z,1008.20
2022-10-19T07:39:06.309Z,1008.12
2022-10-19T07:40:05.876Z,1008.19
2022-10-19T07:41:05.895Z,1008.18
2022-10-19T07:42:05.971Z,1008.11
2022-10-19T07:43:05.845Z,1008.14
2022-10-19T07:44:06.062Z,1008.01
2022-10-19T07:45:05.939Z,1008.03
2022-10-19T07:46:05.998Z,1008.02
2022-10-19T07:47:05.899Z,1008.07
2022-10-19T07:48:05.913Z,1008.05
2022-10-19T07:49:05.889Z,1008.08
2022-10-19T07:50:05.943Z,1008.08
2022-10-19T07:51:05.889Z,1008.08
2022-10-19T07:52:05.879Z,1008.02
2022-10-19T07:53:05.920Z,1008.11
2022-10-19T07:54:05.798Z,1008.01
2022-10-19T07:55:05.812Z,1008.14
2022-10-19T07:56:05.846Z,1008.12
2022-10-19T07:57:05.737Z,1008.10
2022-10-19T07:58:05.738Z,1008.11
2022-10-19T07:59:05.736Z,1008.08
2022-10-19T08:00:05.747Z,1008.06
2022-10-19T08:01:05.776Z,1008.14
2022-10-19T08:02:05.840Z,1008.11
2022-10-19T08:05:11.476Z,1008.06
2022-10-19T08:06:06.737Z,1008.10
2022-10-19T08:07:05.821Z,1008.13
2022-10-19T08:08:05.806Z,1008.08
2022-10-19T08:09:05.849Z,1008.11
2022-10-19T08:10:05.739Z,1008.13
2022-10-19T08:11:05.756Z,1008.10
2022-10-19T08:12:05.899Z,1008.17
2022-10-19T08:13:05.732Z,1008.05
2022-10-19T08:14:05.762Z,1008.09
2022-10-19T08:15:05.725Z,1008.11
2022-10-19T08:16:05.612Z,1008.13
2022-10-19T08:17:05.627Z,1008.09
2022-10-19T08:18:05.710Z,1008.09
2022-10-19T08:19:05.849Z,1008.11
2022-10-19T08:20:05.585Z,1008.17
2022-10-19T08:21:05.684Z,1008.04
2022-10-19T08:22:05.742Z,1008.05
2022-10-19T08:23:05.657Z,1008.09
2022-10-19T08:24:05.741Z,1008.08
2022-10-19T08:25:05.655Z,1008.06
2022-10-19T08:26:05.713Z,1008.07
2022-10-19T08:27:05.647Z,1008.13
2022-10-19T08:28:05.671Z,1008.09
2022-10-19T08:29:05.597Z,1008.12
2022-10-19T08:30:05.611Z,1008.20
2022-10-19T08:31:05.555Z,1008.11
2022-10-19T08:32:05.496Z,1008.11
2022-10-19T08:33:06.355Z,1008.14
2022-10-19T08:34:05.662Z,1008.18
2022-10-19T08:35:09.935Z,1008.15
2022-10-19T08:36:07.521Z,1008.13
2022-10-19T08:37:14.684Z,1008.13
2022-10-19T08:38:07.546Z,1008.13
2022-10-19T08:39:05.553Z,1008.11
2022-10-19T08:40:05.572Z,1008.08
2022-10-19T08:41:05.613Z,1008.03
2022-10-19T08:42:05.549Z,1008.06
2022-10-19T08:43:05.534Z,1007.99
2022-10-19T08:44:07.726Z,1007.98
2022-10-19T08:45:05.602Z,1007.96
2022-10-19T08:46:05.524Z,1008.01
2022-10-19T08:47:07.199Z,1007.96
2022-10-19T08:48:05.475Z,1007.97
2022-10-19T08:49:05.432Z,1007.82
2022-10-19T08:50:05.396Z,1007.85
2022-10-19T08:51:05.442Z,1007.88
2022-10-19T08:52:05.375Z,1007.84
2022-10-19T08:53:05.359Z,1007.79
2022-10-19T08:54:05.340Z,1007.82
2022-10-19T08:55:05.436Z,1007.83
2022-10-19T08:56:05.347Z,1007.80
2022-10-19T08:57:05.409Z,1007.89
2022-10-19T08:58:06.315Z,1007.77
2022-10-19T08:59:05.425Z,1007.79
2022-10-19T09:00:06.075Z,1007.89
2022-10-19T09:01:05.405Z,1007.87
2022-10-19T09:02:05.373Z,1007.81
2022-10-19T09:03:05.353Z,1007.81
2022-10-19T09:04:05.405Z,1007.85
2022-10-19T09:05:05.353Z,1007.83
2022-10-19T09:06:05.418Z,1007.83
2022-10-19T09:07:05.342Z,1007.83
2022-10-19T09:08:05.383Z,1007.82
2022-10-19T09:09:05.416Z,1007.81
2022-10-19T09:10:05.403Z,1007.85
2022-10-19T09:11:05.362Z,1007.88
2022-10-19T09:12:05.268Z,1007.76
2022-10-19T09:13:05.290Z,1007.77
2022-10-19T09:14:05.914Z,1007.79
2022-10-19T09:15:05.216Z,1007.76
2022-10-19T09:16:05.254Z,1007.77
2022-10-19T09:17:05.238Z,1007.72
2022-10-19T09:18:05.184Z,1007.75
2022-10-19T09:19:05.197Z,1007.69
2022-10-19T09:20:05.266Z,1007.73
2022-10-19T09:21:05.233Z,1007.80
2022-10-19T09:22:05.340Z,1007.80
2022-10-19T09:23:06.812Z,1007.90
2022-10-19T09:24:05.230Z,1007.83
2022-10-19T09:25:05.216Z,1007.85
2022-10-19T09:26:05.214Z,1007.90
2022-10-19T09:27:05.197Z,1007.85
2022-10-19T09:28:05.282Z,1007.86
2022-10-19T09:29:05.240Z,1007.90
2022-10-19T09:30:05.169Z,1007.89
2022-10-19T09:31:05.276Z,1007.92
2022-10-19T09:32:05.169Z,1007.85
2022-10-19T09:33:05.723Z,1007.84
2022-10-19T09:34:05.169Z,1007.81
2022-10-19T09:35:05.103Z,1007.76
2022-10-19T09:36:05.135Z,1007.72
2022-10-19T09:37:05.247Z,1007.71
2022-10-19T09:38:05.150Z,1007.68
2022-10-19T09:39:05.179Z,1007.71
2022-10-19T09:40:05.248Z,1007.62
2022-10-19T09:41:05.133Z,1007.62
2022-10-19T09:42:05.121Z,1007.64
2022-10-19T09:43:05.178Z,1007.62
2022-10-19T09:44:05.147Z,1007.66
2022-10-19T09:45:05.000Z,1007.70
2022-10-19T09:46:11.596Z,1007.68
2022-10-19T09:47:09.065Z,1007.70
2022-10-19T09:48:12.179Z,1007.77
2022-10-19T09:49:06.138Z,1007.80
2022-10-19T09:50:04.998Z,1007.78
2022-10-19T09:51:04.959Z,1007.85
2022-10-19T09:52:04.989Z,1007.83
2022-10-19T09:53:04.993Z,1007.82
2022-10-19T09:54:04.999Z,1007.82
2022-10-19T09:55:04.975Z,1007.79
2022-10-19T09:56:04.962Z,1007.83
2022-10-19T09:57:05.024Z,1007.85
2022-10-19T09:58:04.957Z,1007.80
2022-10-19T09:59:04.912Z,1007.80
2022-10-19T10:00:05.038Z,1007.78
2022-10-19T10:01:05.039Z,1007.82
2022-10-19T10:02:05.190Z,1007.78
2022-10-19T10:03:05.031Z,1007.80
2022-10-19T10:04:05.036Z,1007.76
2022-10-19T10:05:05.024Z,1007.81
2022-10-19T10:06:05.321Z,1007.70
2022-10-19T10:07:05.073Z,1007.73
2022-10-19T10:08:05.063Z,1007.72
2022-10-19T10:09:05.109Z,1007.64
2022-10-19T10:10:05.164Z,1007.58
2022-10-19T10:11:04.984Z,1007.59
2022-10-19T10:12:04.945Z,1007.58
2022-10-19T10:13:04.914Z,1007.58
2022-10-19T10:14:07.516Z,1007.60
2022-10-19T10:15:05.838Z,1007.65
2022-10-19T10:16:04.836Z,1007.58
2022-10-19T10:17:04.990Z,1007.53
2022-10-19T10:18:04.797Z,1007.54
2022-10-19T10:19:04.957Z,1007.54
2022-10-19T10:20:04.859Z,1007.52
2022-10-19T10:21:06.946Z,1007.55
2022-10-19T10:22:04.915Z,1007.52
2022-10-19T10:23:04.823Z,1007.46
2022-10-19T10:24:04.844Z,1007.40
2022-10-19T10:25:04.826Z,1007.46
2022-10-19T10:26:04.858Z,1007.50
2022-10-19T10:27:04.884Z,1007.46
2022-10-19T10:28:04.873Z,1007.48
2022-10-19T10:29:04.737Z,1007.54
2022-10-19T10:30:04.757Z,1007.54
2022-10-19T10:31:04.744Z,1007.60
2022-10-19T10:32:04.864Z,1007.56
2022-10-19T10:33:15.896Z,1007.55
2022-10-19T10:34:16.340Z,1007.55
2022-10-19T10:35:06.677Z,1007.57
2022-10-19T10:36:04.676Z,1007.53
2022-10-19T10:37:04.761Z,1007.51
2022-10-19T10:38:04.720Z,1007.57
2022-10-19T10:39:04.784Z,1007.56
2022-10-19T10:40:05.140Z,1007.50
2022-10-19T10:41:04.698Z,1007.48
2022-10-19T10:42:04.910Z,1007.42
2022-10-19T10:43:04.897Z,1007.41
2022-10-19T10:44:05.295Z,1007.38
2022-10-19T10:45:06.353Z,1007.35
2022-10-19T10:46:04.822Z,1007.39
2022-10-19T10:47:04.765Z,1007.36
2022-10-19T10:48:04.727Z,1007.38
2022-10-19T10:49:04.719Z,1007.37
2022-10-19T10:50:04.792Z,1007.34
2022-10-19T10:51:04.706Z,1007.34
2022-10-19T10:52:04.795Z,1007.24
2022-10-19T10:53:04.681Z,1007.33
2022-10-19T10:54:04.567Z,1007.24
2022-10-19T10:55:04.624Z,1007.22
2022-10-19T10:56:04.539Z,1007.25
2022-10-19T10:57:06.628Z,1007.22
2022-10-19T10:58:04.552Z,1007.14
2022-10-19T10:59:04.539Z,1007.10
2022-10-19T11:00:04.527Z,1007.15
2022-10-19T11:01:07.752Z,1007.12
2022-10-19T11:02:04.626Z,1007.07
2022-10-19T11:03:04.705Z,1007.04
2022-10-19T11:04:04.643Z,1007.08
2022-10-19T11:05:04.728Z,1007.05
2022-10-19T11:06:04.730Z,1006.99
2022-10-19T11:07:04.499Z,1006.91
2022-10-19T11:08:04.507Z,1006.97
2022-10-19T11:09:04.556Z,1006.94
2022-10-19T11:10:04.559Z,1006.93
2022-10-19T11:11:04.576Z,1006.92
2022-10-19T11:12:04.605Z,1006.91
2022-10-19T11:13:04.485Z,1006.89
2022-10-19T11:14:04.483Z,1006.89
2022-10-19T11:15:04.549Z,1006.90
2022-10-19T11:16:04.593Z,1006.87
2022-10-19T11:17:05.128Z,1006.91
2022-10-19T11:18:04.567Z,1006.89
2022-10-19T11:19:04.374Z,1006.83
2022-10-19T11:20:04.347Z,1006.88
2022-10-19T11:21:04.448Z,1006.80
2022-10-19T11:22:04.343Z,1006.77
2022-10-19T11:23:04.365Z,1006.77
2022-10-19T11:24:04.418Z,1006.76
2022-10-19T11:25:04.276Z,1006.76
2022-10-19T11:26:04.618Z,1006.77
2022-10-19T11:27:04.488Z,1006.74
2022-10-19T11:28:04.702Z,1006.75
2022-10-19T11:29:04.421Z,1006.72
2022-10-19T11:30:04.360Z,1006.72
2022-10-19T11:31:04.352Z,1006.65
2022-10-19T11:32:04.318Z,1006.58
2022-10-19T11:33:04.350Z,1006.59
2022-10-19T11:34:04.388Z,1006.60
2022-10-19T11:35:04.366Z,1006.40
2022-10-19T11:36:04.384Z,1006.52
2022-10-19T11:37:04.347Z,1006.47
2022-10-19T11:38:19.759Z,1006.48
2022-10-19T11:39:06.453Z,1006.53
2022-10-19T11:40:04.310Z,1006.48
2022-10-19T11:41:19.775Z,1006.49
2022-10-19T11:42:06.372Z,1006.47
2022-10-19T11:43:04.234Z,1006.48
2022-10-19T11:44:04.201Z,1006.45
2022-10-19T11:45:04.307Z,1006.36
2022-10-19T11:46:04.175Z,1006.42
2022-10-19T11:47:04.166Z,1006.38
2022-10-19T11:48:04.123Z,1006.37
2022-10-19T11:49:04.109Z,1006.32
2022-10-19T11:50:04.210Z,1006.32
2022-10-19T11:51:17.305Z,1006.23
2022-10-19T11:52:06.128Z,1006.26
2022-10-19T11:53:04.069Z,1006.25
2022-10-19T11:54:04.199Z,1006.23
2022-10-19T11:55:04.216Z,1006.21
2022-10-19T11:56:04.155Z,1006.18
2022-10-19T11:57:07.270Z,1006.18
2022-10-19T11:58:06.221Z,1006.22
2022-10-19T11:59:04.235Z,1006.12
2022-10-19T12:00:14.362Z,1006.16
2022-10-19T12:01:06.381Z,1006.09
2022-10-19T12:02:04.278Z,1006.04
2022-10-19T12:03:04.168Z,1006.04
2022-10-19T12:04:04.184Z,1005.99
2022-10-19T12:05:04.123Z,1006.01
2022-10-19T12:06:04.265Z,1005.96
2022-10-19T12:07:04.151Z,1005.99
2022-10-19T12:08:04.112Z,1005.96